Time;durP1;ratioP1;P1;durP2;ratioP2;P2;SDS_P1;SDS_P2;PMS_P1;PMS_P2;Temp;Humidity;BMP_temperature;BMP_pressure;BME280_temperature;BME280_humidity;BME280_pressure;Samples;Min_cycle;Max_cycle;Signal;HPM_P1;HPM_P2
2023/05/24 00:01:01;;;;;;;;;;;;;;;22.47;55.61;101125.56;2365985;75;51627;-76
2023/05/24 00:04:02;;;;;;;;;;;;;;;22.46;55.45;101128.47;2330203;75;51262;-77
2023/05/24 00:07:05;;;;;;;;;;;;;;;22.44;55.56;101125.96;2355168;75;50726;-76
2023/05/24 00:13:29;;;;;;;;;;;;;;;22.45;55.92;101124.09;2291894;76;22324;-77
2023/05/24 00:16:31;;;;;;;;;;;;;;;22.43;55.63;101126.15;2291142;77;50379;-78
2023/05/24 00:19:37;;;;;;;;;;;;;;;22.42;55.45;101133.41;2290008;77;50415;-77
2023/05/24 00:22:36;;;;;;;;;;;;;;;22.43;55.70;101132.89;2289503;76;22370;-78
2023/05/24 00:25:38;;;;;;;;;;;;;;;22.45;55.93;101133.01;2306751;76;50441;-78
2023/05/24 00:28:39;;;;;;;;;;;;;;;22.45;55.80;101128.97;2355573;75;50871;-77
2023/05/24 00:31:41;;;;;;;;;;;;;;;22.45;56.05;101130.83;2356093;74;50273;-76
2023/05/24 00:34:43;;;;;;;;;;;;;;;22.46;56.31;101137.91;2293760;74;50736;-77
2023/05/24 00:37:45;;;;;;;;;;;;;;;22.48;56.45;101133.13;2263001;77;50621;-77
2023/05/24 00:40:47;;;;;;;;;;;;;;;22.47;56.19;101138.22;2263277;77;51301;-76
2023/05/24 00:43:49;;;;;;;;;;;;;;;22.46;55.96;101135.22;2289343;77;50791;-76
2023/05/24 00:46:51;;;;;;;;;;;;;;;22.49;55.98;101134.81;2288883;76;50429;-76
2023/05/24 00:49:52;;;;;;;;;;;;;;;22.51;56.00;101135.45;2289175;76;51619;-77
2023/05/24 00:52:54;;;;;;;;;;;;;;;22.49;56.23;101135.64;2262757;77;52322;-76
2023/05/24 00:55:55;;;;;;;;;;;;;;;22.51;56.10;101132.77;2302778;75;51469;-75
2023/05/24 00:58:57;;;;;;;;;;;;;;;22.49;56.55;101136.16;2289801;77;50414;-77
2023/05/24 01:01:58;;;;;;;;;;;;;;;22.49;56.42;101140.21;2262607;77;50000;-77
2023/05/24 01:05:00;;;;;;;;;;;;;;;22.52;56.39;101134.42;2264205;77;49566;-76
2023/05/24 01:08:10;;;;;;;;;;;;;;;22.49;56.28;101135.64;2261041;78;50786;-78
2023/05/24 01:11:22;;;;;;;;;;;;;;;22.51;56.55;101136.28;2287959;76;50376;-77
2023/05/24 01:14:42;;;;;;;;;;;;;;;22.53;56.56;101135.58;2288051;76;50773;-77
2023/05/24 01:17:47;;;;;;;;;;;;;;;22.55;56.43;101135.36;2286677;76;50117;-77
2023/05/24 01:20:49;;;;;;;;;;;;;;;22.55;56.57;101136.71;2287760;76;51469;-77
2023/05/24 01:23:52;;;;;;;;;;;;;;;22.55;56.74;101141.59;2285939;77;50291;-77
2023/05/24 01:26:55;;;;;;;;;;;;;;;22.54;56.58;101136.41;2261642;77;50476;-77
2023/05/24 01:29:57;;;;;;;;;;;;;;;22.54;56.50;101147.19;2220076;79;51272;-78
2023/05/24 01:32:58;;;;;;;;;;;;;;;22.53;56.17;101145.02;2250576;78;50712;-77
2023/05/24 01:36:00;;;;;;;;;;;;;;;22.54;56.22;101148.55;2250108;79;51346;-76
2023/05/24 01:39:04;;;;;;;;;;;;;;;22.53;56.24;101150.41;2249708;79;51383;-78
2023/05/24 01:42:13;;;;;;;;;;;;;;;22.52;56.35;101151.42;2250291;78;22384;-76
2023/05/24 01:45:16;;;;;;;;;;;;;;;22.50;56.44;101144.56;2249741;78;51522;-77
2023/05/24 01:48:35;;;;;;;;;;;;;;;22.48;56.51;101158.26;2209223;79;51551;-75
2023/05/24 01:51:41;;;;;;;;;;;;;;;22.46;56.82;101149.53;2250170;79;50329;-77
2023/05/24 01:54:44;;;;;;;;;;;;;;;22.45;57.02;101151.89;2233099;78;50256;-77
2023/05/24 01:57:46;;;;;;;;;;;;;;;22.44;57.01;101154.28;2262679;76;50699;-77
2023/05/24 02:00:47;;;;;;;;;;;;;;;22.48;56.73;101151.52;2250146;79;50347;-77
2023/05/24 02:03:49;;;;;;;;;;;;;;;22.50;56.83;101148.08;2250225;79;50379;-76
2023/05/24 02:06:51;;;;;;;;;;;;;;;22.51;57.01;101154.34;2219900;79;52647;-77
2023/05/24 02:09:53;;;;;;;;;;;;;;;22.53;57.10;101152.25;2250804;78;51471;-75
2023/05/24 02:12:54;;;;;;;;;;;;;;;22.53;57.39;101146.86;2278173;77;51497;-77
2023/05/24 02:15:56;;;;;;;;;;;;;;;22.53;57.65;101150.91;2300845;76;50748;-77
2023/05/24 02:18:57;;;;;;;;;;;;;;;22.54;57.47;101152.59;2267896;77;50979;-77
2023/05/24 02:21:59;;;;;;;;;;;;;;;22.53;57.47;101149.06;2300958;77;52397;-77
2023/05/24 02:25:01;;;;;;;;;;;;;;;22.53;57.51;101147.72;2306745;76;50683;-77
2023/05/24 02:28:03;;;;;;;;;;;;;;;22.54;57.60;101147.19;2322600;75;50374;-77
2023/05/24 02:31:05;;;;;;;;;;;;;;;22.54;57.52;101145.84;2366967;74;50765;-76
2023/05/24 02:34:06;;;;;;;;;;;;;;;22.54;57.60;101148.55;2329638;75;50442;-76
2023/05/24 02:37:08;;;;;;;;;;;;;;;22.53;57.62;101144.16;2329336;75;51518;-76
2023/05/24 02:40:10;;;;;;;;;;;;;;;22.53;57.67;101145.02;2367050;74;53743;-77
2023/05/24 02:43:11;;;;;;;;;;;;;;;22.54;58.03;101143.15;2340000;76;49437;-77
2023/05/24 02:46:13;;;;;;;;;;;;;;;22.53;57.85;101143.67;2367226;74;50747;-76
2023/05/24 02:49:14;;;;;;;;;;;;;;;22.54;57.65;101145.84;2329455;75;50392;-76
2023/05/24 02:52:20;;;;;;;;;;;;;;;22.52;57.92;101147.38;2329580;75;50246;-76
2023/05/24 02:55:19;;;;;;;;;;;;;;;22.53;58.11;101145.51;2310438;75;22416;-76
2023/05/24 02:58:21;;;;;;;;;;;;;;;22.52;58.05;101154.12;2289054;77;51428;-76
2023/05/24 03:01:23;;;;;;;;;;;;;;;22.53;58.20;101146.86;2289420;77;50372;-77
2023/05/24 03:04:25;;;;;;;;;;;;;;;22.52;58.13;101152.77;2289549;77;50642;-76
2023/05/24 03:07:26;;;;;;;;;;;;;;;22.52;58.07;101149.25;2261598;77;51063;-77
2023/05/24 03:10:28;;;;;;;;;;;;;;;22.52;57.93;101152.77;2260763;77;50722;-77
2023/05/24 03:13:29;;;;;;;;;;;;;;;22.52;57.79;101155.98;2289292;77;50776;-76
2023/05/24 03:16:31;;;;;;;;;;;;;;;22.51;57.67;101144.38;2288609;77;51541;-77
2023/05/24 03:19:33;;;;;;;;;;;;;;;22.51;57.82;101150.29;2262764;77;49666;-78
2023/05/24 03:22:35;;;;;;;;;;;;;;;22.51;58.41;101152.47;2288255;77;50346;-77
2023/05/24 03:25:36;;;;;;;;;;;;;;;22.50;57.67;101156.17;2288879;76;50251;-77
2023/05/24 03:28:39;;;;;;;;;;;;;;;22.51;57.99;101161.08;2288283;77;51592;-76
2023/05/24 03:31:41;;;;;;;;;;;;;;;22.49;57.91;101160.44;2238278;77;49641;-76
2023/05/24 03:34:42;;;;;;;;;;;;;;;22.50;57.85;101156.70;2288759;77;50721;-77
2023/05/24 03:37:44;;;;;;;;;;;;;;;22.49;58.09;101154.52;2262636;77;51591;-76
2023/05/24 03:40:45;;;;;;;;;;;;;;;22.49;58.21;101155.05;2288810;77;50614;-76
2023/05/24 03:43:47;;;;;;;;;;;;;;;22.49;58.03;101155.05;2238352;77;49894;-75
2023/05/24 03:46:49;;;;;;;;;;;;;;;22.48;58.38;101165.00;2262367;77;51475;-77
2023/05/24 03:49:50;;;;;;;;;;;;;;;22.49;57.89;101160.44;2288505;77;51281;-77
2023/05/24 03:52:52;;;;;;;;;;;;;;;22.48;57.98;101159.61;2262168;77;51426;-75
2023/05/24 03:55:53;;;;;;;;;;;;;;;22.48;58.32;101166.84;2275655;76;51632;-76
2023/05/24 03:58:59;;;;;;;;;;;;;;;22.48;58.18;101168.19;2355658;75;49932;-76
2023/05/24 04:01:58;;;;;;;;;;;;;;;22.47;58.19;101172.75;2355494;73;21716;-76
2023/05/24 04:05:00;;;;;;;;;;;;;;;22.47;57.93;101169.23;2328555;75;51427;-76
2023/05/24 04:08:02;;;;;;;;;;;;;;;22.46;58.09;101172.45;2355489;74;50694;-77
2023/05/24 04:11:04;;;;;;;;;;;;;;;22.46;57.97;101175.66;2328775;74;50048;-76
2023/05/24 04:14:08;;;;;;;;;;;;;;;22.46;58.04;101167.58;2356354;74;50643;-76
2023/05/24 04:17:11;;;;;;;;;;;;;;;22.45;58.06;101175.33;2328695;74;50780;-76
2023/05/24 04:20:12;;;;;;;;;;;;;;;22.45;58.29;101176.67;2301834;76;51657;-76
2023/05/24 04:23:14;;;;;;;;;;;;;;;22.44;58.64;101178.55;2310525;76;50931;-75
2023/05/24 04:26:16;;;;;;;;;;;;;;;22.45;58.83;101183.41;2298978;76;50618;-76
2023/05/24 04:29:18;;;;;;;;;;;;;;;22.46;58.91;101183.75;2288905;76;50719;-77
2023/05/24 04:32:20;;;;;;;;;;;;;;;22.46;59.03;101179.71;2238094;77;51227;-77
2023/05/24 04:35:22;;;;;;;;;;;;;;;22.44;59.04;101183.94;2288865;77;50300;-77
2023/05/24 04:38:23;;;;;;;;;;;;;;;22.45;59.15;101190.98;2262527;77;51582;-77
2023/05/24 04:41:25;;;;;;;;;;;;;;;22.44;59.27;101193.37;2288891;77;50103;-77
2023/05/24 04:44:27;;;;;;;;;;;;;;;22.45;59.41;101194.20;2262318;77;51110;-78
2023/05/24 04:47:29;;;;;;;;;;;;;;;22.42;57.01;101190.03;2286735;77;51485;-76
2023/05/24 04:50:30;;;;;;;;;;;;;;;22.37;55.92;101193.31;2286963;77;51498;-77
2023/05/24 04:53:32;;;;;;;;;;;;;;;22.37;55.39;101197.35;2286563;76;50314;-77
2023/05/24 04:56:37;;;;;;;;;;;;;;;22.36;55.02;101206.48;2292911;76;49454;-77
2023/05/24 04:59:38;;;;;;;;;;;;;;;22.34;55.06;101208.53;2327608;75;51704;-77
2023/05/24 05:02:40;;;;;;;;;;;;;;;22.34;55.51;101214.45;2354909;74;50685;-77
2023/05/24 05:05:42;;;;;;;;;;;;;;;22.32;55.38;101218.67;2328602;76;51537;-78
2023/05/24 05:08:43;;;;;;;;;;;;;;;22.33;55.81;101220.36;2293649;76;49776;-77
2023/05/24 05:11:48;;;;;;;;;;;;;;;22.30;55.83;101223.45;2289126;76;50393;-77
2023/05/24 05:14:49;;;;;;;;;;;;;;;22.32;55.75;101227.28;2288907;77;50525;-77
2023/05/24 05:17:51;;;;;;;;;;;;;;;22.32;55.84;101228.11;2288803;76;50241;-77
2023/05/24 05:20:52;;;;;;;;;;;;;;;22.32;55.81;101228.62;2262835;77;51011;-77
2023/05/24 05:23:54;;;;;;;;;;;;;;;22.31;55.81;101230.50;2294620;76;50353;-77
2023/05/24 05:26:56;;;;;;;;;;;;;;;22.31;55.70;101235.06;2328198;76;51471;-77
2023/05/24 05:29:57;;;;;;;;;;;;;;;22.29;55.65;101240.64;2355783;74;52420;-77
2023/05/24 05:32:59;;;;;;;;;;;;;;;22.28;55.41;101243.55;2290441;76;51116;-76
2023/05/24 05:36:00;;;;;;;;;;;;;;;22.25;54.87;101243.41;2259861;77;50500;-78
2023/05/24 05:39:02;;;;;;;;;;;;;;;22.24;55.00;101247.64;2293157;76;50739;-75
2023/05/24 05:42:04;;;;;;;;;;;;;;;22.25;55.08;101256.06;2265727;77;51389;-76
2023/05/24 05:45:06;;;;;;;;;;;;;;;22.26;54.94;101261.77;2265648;77;51253;-77
2023/05/24 05:48:07;;;;;;;;;;;;;;;22.26;55.16;101263.94;2289048;77;50278;-76
2023/05/24 05:51:09;;;;;;;;;;;;;;;22.28;55.14;101265.94;2291754;77;50257;-76
2023/05/24 05:54:14;;;;;;;;;;;;;;;22.27;55.12;101257.55;2274174;76;50104;-76
2023/05/24 05:57:15;;;;;;;;;;;;;;;22.26;55.05;101266.64;2288404;77;22423;-75
2023/05/24 06:00:17;;;;;;;;;;;;;;;22.24;55.16;101267.34;2263197;77;50082;-76
2023/05/24 06:03:18;;;;;;;;;;;;;;;22.23;55.18;101263.50;2262835;77;51471;-75
2023/05/24 06:06:20;;;;;;;;;;;;;;;22.23;55.17;101266.20;2262731;77;50317;-75
2023/05/24 06:09:21;;;;;;;;;;;;;;;22.24;55.32;101269.20;2288455;77;50350;-76
2023/05/24 06:12:23;;;;;;;;;;;;;;;22.24;55.04;101271.37;2259906;76;50680;-76
2023/05/24 06:15:24;;;;;;;;;;;;;;;22.23;55.18;101268.89;2286888;77;50660;-75
2023/05/24 06:18:26;;;;;;;;;;;;;;;22.26;55.26;101281.47;2286581;76;51600;-76
2023/05/24 06:21:28;;;;;;;;;;;;;;;22.24;55.16;101275.42;2235699;78;50291;-76
2023/05/24 06:24:33;;;;;;;;;;;;;;;22.26;55.38;101275.25;2273264;76;50286;-76
2023/05/24 06:27:33;;;;;;;;;;;;;;;22.25;55.43;101284.37;2355336;75;22384;-76
2023/05/24 06:30:35;;;;;;;;;;;;;;;22.25;55.37;101283.85;2328541;76;50724;-75
2023/05/24 06:33:36;;;;;;;;;;;;;;;22.25;55.36;101281.16;2328689;75;52524;-76
2023/05/24 06:36:41;;;;;;;;;;;;;;;22.25;55.39;101282.50;2327477;74;52332;-76
2023/05/24 06:39:41;;;;;;;;;;;;;;;22.24;55.30;101281.33;2328825;74;22271;-76
2023/05/24 06:42:43;;;;;;;;;;;;;;;22.25;55.44;101287.06;2328643;75;50643;-76
2023/05/24 06:45:45;;;;;;;;;;;;;;;22.24;55.16;101288.91;2301776;76;52501;-76
2023/05/24 06:48:47;;;;;;;;;;;;;;;22.26;55.38;101297.64;2328459;76;50362;-76
2023/05/24 06:51:48;;;;;;;;;;;;;;;22.26;55.49;101304.37;2354083;74;50632;-75
2023/05/24 06:54:50;;;;;;;;;;;;;;;22.26;55.45;101315.16;2269385;76;51480;-75
2023/05/24 06:57:52;;;;;;;;;;;;;;;22.24;55.50;101321.25;2262362;77;50333;-76
2023/05/24 07:00:54;;;;;;;;;;;;;;;22.24;55.45;101319.91;2262523;77;50735;-77
2023/05/24 07:03:55;;;;;;;;;;;;;;;22.23;55.53;101316.07;2262627;77;50709;-75
2023/05/24 07:06:57;;;;;;;;;;;;;;;22.24;55.51;101321.77;2262545;77;50226;-76
2023/05/24 07:09:59;;;;;;;;;;;;;;;22.23;55.46;101320.11;2262587;77;49516;-76
2023/05/24 07:13:00;;;;;;;;;;;;;;;22.24;55.66;101318.55;2288774;77;50395;-75
2023/05/24 07:16:02;;;;;;;;;;;;;;;22.25;55.66;101319.41;2288797;76;51677;-77
2023/05/24 07:19:03;;;;;;;;;;;;;;;22.24;55.56;101326.64;2262483;77;51486;-75
2023/05/24 07:22:06;;;;;;;;;;;;;;;22.27;55.55;101328.13;2259183;77;51460;-76
2023/05/24 07:25:08;;;;;;;;;;;;;;;22.28;55.37;101333.34;2287728;77;51594;-75
2023/05/24 07:28:09;;;;;;;;;;;;;;;22.28;55.37;101332.51;2262495;77;50764;-76
2023/05/24 07:31:11;;;;;;;;;;;;;;;22.28;55.30;101341.42;2262876;77;51526;-76
2023/05/24 07:34:13;;;;;;;;;;;;;;;22.25;55.25;101341.81;2238347;77;51187;-76
2023/05/24 07:37:16;;;;;;;;;;;;;;;22.25;55.22;101339.12;2262527;77;50682;-77
2023/05/24 07:40:18;;;;;;;;;;;;;;;22.27;55.33;101345.65;2263014;77;52350;-76
2023/05/24 07:43:19;;;;;;;;;;;;;;;22.26;55.27;101350.20;2263166;77;50779;-76
2023/05/24 07:46:21;;;;;;;;;;;;;;;22.26;55.19;101350.20;2262530;77;51578;-76
2023/05/24 07:49:23;;;;;;;;;;;;;;;22.28;55.19;101352.73;2262822;77;50399;-75
2023/05/24 07:52:25;;;;;;;;;;;;;;;22.27;55.26;101352.38;2281609;77;50390;-76
2023/05/24 07:55:27;;;;;;;;;;;;;;;22.29;55.20;101359.26;2292791;77;51460;-76
2023/05/24 07:58:28;;;;;;;;;;;;;;;22.28;55.27;101354.08;2261242;77;52663;-76
2023/05/24 08:01:31;;;;;;;;;;;;;;;22.27;55.19;101362.68;2285655;77;51529;-76
2023/05/24 08:04:32;;;;;;;;;;;;;;;22.26;55.25;101361.52;2287336;78;50503;-76
2023/05/24 08:07:34;;;;;;;;;;;;;;;22.29;55.21;101370.05;2285221;77;52265;-75
2023/05/24 08:10:35;;;;;;;;;;;;;;;22.28;55.15;101375.13;2260125;77;51259;-75
2023/05/24 08:13:37;;;;;;;;;;;;;;;22.26;55.16;101374.47;2285453;78;49755;-75
2023/05/24 08:16:39;;;;;;;;;;;;;;;22.28;55.23;101367.03;2344813;74;50707;-74
2023/05/24 08:19:40;;;;;;;;;;;;;;;22.26;55.27;101372.30;2355510;75;51501;-76
2023/05/24 08:22:42;;;;;;;;;;;;;;;22.26;55.22;101370.95;2320638;76;52513;-75
2023/05/24 08:25:43;;;;;;;;;;;;;;;22.26;55.16;101378.52;2342664;74;51572;-75
2023/05/24 08:28:46;;;;;;;;;;;;;;;22.27;55.25;101377.51;2329498;75;51454;-75
2023/05/24 08:31:47;;;;;;;;;;;;;;;22.26;55.32;101375.82;2329671;75;50685;-76
2023/05/24 08:34:49;;;;;;;;;;;;;;;22.27;55.26;101382.91;2356087;75;51187;-76
2023/05/24 08:37:50;;;;;;;;;;;;;;;22.28;55.26;101383.22;2355975;75;50232;-75
2023/05/24 08:40:52;;;;;;;;;;;;;;;22.29;55.31;101379.48;2329831;75;50260;-76
2023/05/24 08:43:54;;;;;;;;;;;;;;;22.28;55.30;101381.86;2356035;75;50385;-75
2023/05/24 08:46:57;;;;;;;;;;;;;;;22.28;55.24;101389.95;2356148;75;51702;-76
2023/05/24 08:49:59;;;;;;;;;;;;;;;22.26;55.32;101386.61;2329729;75;51594;-76
2023/05/24 08:53:01;;;;;;;;;;;;;;;22.27;55.29;101385.59;2320997;75;51587;-76
2023/05/24 08:56:03;;;;;;;;;;;;;;;22.25;55.29;101390.34;2329439;75;51967;-76
2023/05/24 08:59:05;;;;;;;;;;;;;;;22.27;55.20;101391.48;2354954;75;51033;-76
2023/05/24 09:02:06;;;;;;;;;;;;;;;22.26;55.31;101394.69;2355163;75;51430;-75
2023/05/24 09:05:13;;;;;;;;;;;;;;;22.26;55.34;101409.52;2328929;75;51586;-75
2023/05/24 09:08:16;;;;;;;;;;;;;;;22.26;55.33;101408.17;2328623;76;51484;-75
2023/05/24 09:11:17;;;;;;;;;;;;;;;22.25;55.35;101405.69;2328901;74;22343;-76
2023/05/24 09:14:19;;;;;;;;;;;;;;;22.25;55.31;101406.52;2355641;75;51535;-75
2023/05/24 09:17:21;;;;;;;;;;;;;;;22.24;55.31;101408.87;2309384;76;50446;-75
2023/05/24 09:20:22;;;;;;;;;;;;;;;22.24;55.45;101413.43;2308992;76;50205;-76
2023/05/24 09:23:25;;;;;;;;;;;;;;;22.24;55.42;101412.91;2284987;76;51237;-75
2023/05/24 09:26:32;;;;;;;;;;;;;;;22.24;55.23;101406.69;2236140;79;51679;-76
2023/05/24 09:29:30;;;;;;;;;;;;;;;22.24;55.41;101411.56;2247594;76;22414;-76
2023/05/24 09:32:32;;;;;;;;;;;;;;;22.23;55.35;101401.81;2273904;76;51551;-76
2023/05/24 09:35:35;;;;;;;;;;;;;;;22.25;55.22;101408.38;2242018;77;53935;-76
2023/05/24 09:38:37;;;;;;;;;;;;;;;22.25;55.36;101411.08;2244886;76;25284;-76
2023/05/24 09:41:38;;;;;;;;;;;;;;;22.24;55.32;101408.87;2313395;75;50717;-75
2023/05/24 09:44:41;;;;;;;;;;;;;;;22.25;55.26;101410.55;2268726;77;51511;-75
2023/05/24 09:47:47;;;;;;;;;;;;;;;22.25;55.24;101409.20;2262608;76;50747;-77
2023/05/24 09:51:05;;;;;;;;;;;;;;;22.25;55.22;101415.95;2267916;76;23053;-76
2023/05/24 09:54:07;;;;;;;;;;;;;;;22.24;55.28;101415.61;2306747;75;50682;-75
2023/05/24 09:57:10;;;;;;;;;;;;;;;22.25;55.24;101413.25;2273955;76;51543;-76
2023/05/24 10:00:20;;;;;;;;;;;;;;;22.23;55.12;101424.73;2281634;76;50486;-76
2023/05/24 10:03:17;;;;;;;;;;;;;;;22.23;55.21;101420.69;2279828;76;22369;-75
2023/05/24 10:06:19;;;;;;;;;;;;;;;22.25;55.08;101424.03;2269707;76;50096;-76
2023/05/24 10:09:21;;;;;;;;;;;;;;;22.25;55.18;101422.69;2280390;76;50651;-75
2023/05/24 10:12:24;;;;;;;;;;;;;;;22.24;55.27;101434.48;2275619;76;51542;-76
2023/05/24 10:15:26;;;;;;;;;;;;;;;22.22;55.62;101431.16;2276596;77;21698;-76
2023/05/24 10:18:28;;;;;;;;;;;;;;;22.23;55.60;101440.91;2284856;76;50756;-75
2023/05/24 10:21:31;;;;;;;;;;;;;;;22.21;55.96;101430.81;2306832;75;51500;-75
2023/05/24 10:24:34;;;;;;;;;;;;;;;22.24;56.04;101432.30;2305663;75;51593;-76
2023/05/24 10:27:37;;;;;;;;;;;;;;;22.26;55.82;101436.48;2282915;76;51546;-76
2023/05/24 10:30:57;;;;;;;;;;;;;;;22.28;55.73;101432.27;2297286;75;50314;-74
2023/05/24 10:33:59;;;;;;;;;;;;;;;22.28;55.73;101433.09;2304278;75;50330;-75
2023/05/24 10:37:00;;;;;;;;;;;;;;;22.28;55.76;101443.05;2300713;74;52605;-76
2023/05/24 10:40:03;;;;;;;;;;;;;;;22.27;55.84;101436.82;2262876;76;52493;-76
2023/05/24 10:43:07;;;;;;;;;;;;;;;22.28;55.92;101440.34;2252791;76;51546;-76
2023/05/24 10:46:09;;;;;;;;;;;;;;;22.27;55.94;101442.70;2325146;76;50192;-77
2023/05/24 10:49:11;;;;;;;;;;;;;;;22.28;56.02;101441.18;2324133;76;51542;-77
2023/05/24 10:52:12;;;;;;;;;;;;;;;22.29;55.98;101439.31;2239566;76;49525;-77
2023/05/24 10:55:14;;;;;;;;;;;;;;;22.29;55.91;101442.84;2326676;74;51541;-77
2023/05/24 10:58:16;;;;;;;;;;;;;;;22.28;55.86;101443.87;2288945;77;51684;-78
2023/05/24 11:01:30;;;;;;;;;;;;;;;22.31;55.83;101444.84;2289262;77;51462;-78
2023/05/24 11:04:33;;;;;;;;;;;;;;;22.31;55.77;101442.14;2263297;77;52355;-78
2023/05/24 11:07:34;;;;;;;;;;;;;;;22.33;55.78;101440.09;2288997;77;50307;-78
2023/05/24 11:10:36;;;;;;;;;;;;;;;22.34;55.77;101443.63;2263267;77;50629;-79
2023/05/24 11:13:37;;;;;;;;;;;;;;;22.35;55.80;101444.80;2289237;77;50259;-78
2023/05/24 11:16:39;;;;;;;;;;;;;;;22.34;55.76;101439.06;2262985;77;50751;-78
2023/05/24 11:19:47;;;;;;;;;;;;;;;22.36;55.75;101446.45;2289513;77;50603;-77
2023/05/24 11:22:50;;;;;;;;;;;;;;;22.36;55.74;101442.41;2300745;76;51599;-77
2023/05/24 11:25:52;;;;;;;;;;;;;;;22.35;55.74;101438.55;2326223;74;50647;-78
2023/05/24 11:28:53;;;;;;;;;;;;;;;22.34;55.71;101435.02;2329181;75;50979;-78
2023/05/24 11:32:06;;;;;;;;;;;;;;;22.34;55.68;101435.02;2328997;76;50698;-77
2023/05/24 11:35:10;;;;;;;;;;;;;;;22.32;55.66;101438.41;2329244;74;50050;-77
2023/05/24 11:38:12;;;;;;;;;;;;;;;22.32;55.68;101433.53;2356466;74;22517;-76
2023/05/24 11:41:14;;;;;;;;;;;;;;;22.32;55.63;101433.02;2328478;76;50154;-77
2023/05/24 11:44:17;;;;;;;;;;;;;;;22.31;55.66;101440.80;2328995;76;50310;-78
2023/05/24 11:47:20;;;;;;;;;;;;;;;22.31;55.64;101446.19;2328861;76;50323;-77
2023/05/24 11:50:25;;;;;;;;;;;;;;;22.31;55.63;101451.58;2329161;76;51496;-77
2023/05/24 11:53:26;;;;;;;;;;;;;;;22.31;55.62;101442.14;2313201;76;50308;-77
2023/05/24 11:56:31;;;;;;;;;;;;;;;22.30;55.57;101445.88;2325758;75;50163;-78
2023/05/24 11:59:36;;;;;;;;;;;;;;;22.32;55.57;101455.10;2293660;77;50705;-77
2023/05/24 12:02:41;;;;;;;;;;;;;;;22.31;55.49;101452.92;2264470;77;23068;-78
2023/05/24 12:05:39;;;;;;;;;;;;;;;22.31;55.50;101454.27;2289916;77;21968;-78
2023/05/24 12:08:41;;;;;;;;;;;;;;;22.32;55.50;101450.55;2290959;77;50388;-78
2023/05/24 12:11:48;;;;;;;;;;;;;;;22.33;55.39;101447.36;2291691;77;50829;-77
2023/05/24 12:14:50;;;;;;;;;;;;;;;22.33;55.41;101456.80;2289435;77;50869;-78
2023/05/24 12:17:52;;;;;;;;;;;;;;;22.32;55.32;101453.23;2238477;77;50895;-78
2023/05/24 12:20:53;;;;;;;;;;;;;;;22.33;55.32;101460.84;2264481;77;50823;-78
2023/05/24 12:23:55;;;;;;;;;;;;;;;22.33;55.30;101458.97;2311959;76;51317;-79
2023/05/24 12:27:00;;;;;;;;;;;;;;;22.32;55.28;101454.59;2296402;76;50248;-78
2023/05/24 12:30:09;;;;;;;;;;;;;;;22.33;55.31;101460.32;2262309;77;51220;-78
2023/05/24 12:33:10;;;;;;;;;;;;;;;22.34;55.26;101447.67;2287991;77;51562;-76
2023/05/24 12:36:12;;;;;;;;;;;;;;;22.33;55.25;101438.75;2287356;77;51568;-76
2023/05/24 12:39:17;;;;;;;;;;;;;;;22.34;55.21;101441.76;2261559;78;50710;-77
2023/05/24 12:42:22;;;;;;;;;;;;;;;22.30;55.21;101453.96;2237133;77;51011;-78
2023/05/24 12:45:24;;;;;;;;;;;;;;;22.28;55.18;101449.27;2262423;78;23289;-77
2023/05/24 12:48:26;;;;;;;;;;;;;;;22.30;55.19;101458.01;2287580;77;50677;-78
2023/05/24 12:51:27;;;;;;;;;;;;;;;22.30;55.21;101454.45;2287737;77;51446;-77
2023/05/24 12:54:29;;;;;;;;;;;;;;;22.30;55.23;101453.10;2252617;76;51534;-77
2023/05/24 12:57:31;;;;;;;;;;;;;;;22.31;55.23;101459.67;2292457;77;50318;-77
2023/05/24 13:00:32;;;;;;;;;;;;;;;22.33;55.20;101467.06;2263398;77;50428;-77
2023/05/24 13:03:34;;;;;;;;;;;;;;;22.31;55.02;101457.48;2263504;77;50648;-78
2023/05/24 13:06:37;;;;;;;;;;;;;;;22.31;54.77;101451.58;2238670;77;51176;-78
2023/05/24 13:09:38;;;;;;;;;;;;;;;22.31;54.85;101450.75;2263837;77;51498;-77
2023/05/24 13:12:41;;;;;;;;;;;;;;;22.29;54.64;101453.63;2289334;77;50307;-77
2023/05/24 13:15:43;;;;;;;;;;;;;;;22.28;54.34;101457.35;2289168;77;50113;-77
2023/05/24 13:18:45;;;;;;;;;;;;;;;22.30;54.67;101459.84;2263273;77;51619;-78
2023/05/24 13:21:46;;;;;;;;;;;;;;;22.28;54.50;101461.39;2263032;77;51517;-77
2023/05/24 13:24:48;;;;;;;;;;;;;;;22.31;54.70;101454.27;2296550;76;51459;-77
2023/05/24 13:27:55;;;;;;;;;;;;;;;22.31;54.38;101450.75;2296048;76;51378;-77
2023/05/24 13:30:53;;;;;;;;;;;;;;;22.32;54.62;101449.72;2287039;77;22309;-77
2023/05/24 13:33:55;;;;;;;;;;;;;;;22.33;54.53;101446.84;2238381;77;51238;-77
2023/05/24 13:36:58;;;;;;;;;;;;;;;22.34;54.40;101447.67;2288782;77;51551;-77
2023/05/24 13:40:00;;;;;;;;;;;;;;;22.35;54.20;101447.98;2288932;77;50401;-77
2023/05/24 13:43:02;;;;;;;;;;;;;;;22.37;54.36;101448.63;2262962;77;50041;-77
2023/05/24 13:46:04;;;;;;;;;;;;;;;22.36;54.29;101445.11;2263066;77;50959;-77
2023/05/24 13:49:05;;;;;;;;;;;;;;;22.33;54.04;101451.41;2262739;77;51152;-77
2023/05/24 13:52:07;;;;;;;;;;;;;;;22.33;54.13;101456.80;2288822;77;50311;-77
2023/05/24 13:55:09;;;;;;;;;;;;;;;22.30;54.06;101456.66;2300292;76;50286;-77
2023/05/24 13:58:11;;;;;;;;;;;;;;;22.31;54.08;101459.67;2282641;74;51679;-77
2023/05/24 14:01:12;;;;;;;;;;;;;;;22.28;53.98;101452.48;2250907;79;50789;-77
2023/05/24 14:04:15;;;;;;;;;;;;;;;22.26;54.10;101451.30;2226085;79;51691;-78
2023/05/24 14:07:17;;;;;;;;;;;;;;;22.27;54.05;101450.30;2202241;79;50653;-78
2023/05/24 14:10:19;;;;;;;;;;;;;;;22.27;54.05;101450.30;2226115;78;51450;-77
2023/05/24 14:13:20;;;;;;;;;;;;;;;22.28;53.87;101449.27;2251044;78;51545;-77
2023/05/24 14:16:22;;;;;;;;;;;;;;;22.31;53.90;101448.05;2251016;79;52156;-77
2023/05/24 14:19:23;;;;;;;;;;;;;;;22.34;53.79;101447.67;2226118;78;51704;-78
2023/05/24 14:22:28;;;;;;;;;;;;;;;22.33;53.78;101450.89;2250984;78;50370;-77
2023/05/24 14:25:28;;;;;;;;;;;;;;;22.33;53.84;101450.89;2251357;77;22371;-77
2023/05/24 14:28:30;;;;;;;;;;;;;;;22.32;53.93;101449.19;2302006;76;52903;-77
2023/05/24 14:31:33;;;;;;;;;;;;;;;22.33;53.96;101440.62;2329161;76;50002;-78
2023/05/24 14:34:35;;;;;;;;;;;;;;;22.30;53.90;101439.13;2355820;74;51533;-78
2023/05/24 14:37:37;;;;;;;;;;;;;;;22.33;53.92;101441.45;2329060;76;51427;-78
2023/05/24 14:40:39;;;;;;;;;;;;;;;22.33;53.96;101439.27;2329615;76;51400;-78
2023/05/24 14:43:41;;;;;;;;;;;;;;;22.30;54.04;101442.31;2329878;76;50692;-76
2023/05/24 14:46:42;;;;;;;;;;;;;;;22.32;53.96;101447.02;2356478;74;51507;-76
2023/05/24 14:49:44;;;;;;;;;;;;;;;22.31;54.04;101450.23;2329523;74;51561;-77
2023/05/24 14:52:46;;;;;;;;;;;;;;;22.30;53.94;101446.36;2329555;76;50264;-77
2023/05/24 14:55:47;;;;;;;;;;;;;;;22.31;54.06;101445.36;2303835;76;51685;-76
2023/05/24 14:58:49;;;;;;;;;;;;;;;22.33;53.80;101445.49;2263182;77;50361;-77
2023/05/24 15:01:50;;;;;;;;;;;;;;;22.35;53.77;101446.14;2288946;77;50709;-76
2023/05/24 15:04:52;;;;;;;;;;;;;;;22.37;53.75;101449.98;2288712;77;51283;-77
2023/05/24 15:07:53;;;;;;;;;;;;;;;22.33;53.77;101453.58;2262461;77;52056;-78
2023/05/24 15:10:55;;;;;;;;;;;;;;;22.32;53.85;101451.06;2262844;77;51418;-77
2023/05/24 15:14:01;;;;;;;;;;;;;;;22.31;53.77;101448.05;2262893;77;51548;-77
2023/05/24 15:17:00;;;;;;;;;;;;;;;22.31;53.88;101445.36;2262831;77;22474;-78
2023/05/24 15:20:02;;;;;;;;;;;;;;;22.31;54.09;101445.36;2262797;77;52466;-77
2023/05/24 15:23:03;;;;;;;;;;;;;;;22.29;53.88;101449.58;2262942;77;50115;-77
2023/05/24 15:26:05;;;;;;;;;;;;;;;22.32;53.90;101445.15;2295266;76;50267;-77
2023/05/24 15:29:06;;;;;;;;;;;;;;;22.34;53.88;101443.63;2356352;74;52487;-77
2023/05/24 15:32:08;;;;;;;;;;;;;;;22.33;53.81;101444.14;2328965;76;49531;-76
2023/05/24 15:35:10;;;;;;;;;;;;;;;22.33;53.80;101441.45;2356284;74;50624;-77
2023/05/24 15:38:12;;;;;;;;;;;;;;;22.34;53.79;101437.72;2328978;76;50409;-78